Time;durP1;ratioP1;P1;durP2;ratioP2;P2;SDS_P1;SDS_P2;PMS_P1;PMS_P2;Temp;Humidity;BMP_temperature;BMP_pressure;BME280_temperature;BME280_humidity;BME280_pressure;Samples;Min_cycle;Max_cycle;Signal;HPM_P1;HPM_P2
2023/04/17 00:00:42;;;;;;;13.20;8.90;;;;;;;10.40;100.00;101146.20;107067;1248;58950;-68
2023/04/17 00:03:19;;;;;;;14.80;8.40;;;;;;;10.40;100.00;101142.54;107118;1257;57507;-69
2023/04/17 00:05:48;;;;;;;12.30;9.30;;;;;;;10.40;100.00;101143.94;107149;1248;62175;-69
2023/04/17 00:08:17;;;;;;;12.60;8.50;;;;;;;10.37;100.00;101142.73;107156;1246;61086;-69
2023/04/17 00:10:46;;;;;;;14.90;9.30;;;;;;;10.36;100.00;101136.36;107195;1244;58966;-69
2023/04/17 00:13:28;;;;;;;10.80;8.20;;;;;;;10.39;100.00;101139.14;107173;1253;73240;-69
2023/04/17 00:15:56;;;;;;;14.50;8.50;;;;;;;10.39;100.00;101134.92;107169;1244;60891;-69
2023/04/17 00:18:25;;;;;;;11.80;8.10;;;;;;;10.37;100.00;101134.34;107189;1248;60885;-68
2023/04/17 00:20:55;;;;;;;13.10;8.90;;;;;;;10.40;100.00;101131.95;107002;1251;75218;-67
2023/04/17 00:23:25;;;;;;;11.90;8.10;;;;;;;10.40;100.00;101127.52;107084;1247;62142;-67
2023/04/17 00:25:54;;;;;;;10.70;8.10;;;;;;;10.42;100.00;101129.31;107123;1254;68781;-67
2023/04/17 00:28:23;;;;;;;12.80;8.60;;;;;;;10.42;100.00;101129.48;107113;1247;74190;-69
2023/04/17 00:30:52;;;;;;;12.80;8.10;;;;;;;10.42;100.00;101128.27;107135;1244;61924;-67
2023/04/17 00:33:21;;;;;;;13.30;8.40;;;;;;;10.42;100.00;101129.02;107067;1247;59010;-67
2023/04/17 00:35:51;;;;;;;11.10;8.30;;;;;;;10.41;100.00;101124.34;107063;1244;73677;-68
2023/04/17 00:38:20;;;;;;;12.10;7.80;;;;;;;10.40;100.00;101122.88;107076;1244;73763;-68
2023/04/17 00:40:50;;;;;;;11.80;8.30;;;;;;;10.34;100.00;101121.00;106869;1244;70226;-69
2023/04/17 00:43:19;;;;;;;10.30;8.20;;;;;;;10.33;100.00;101122.59;106876;1248;63695;-68
2023/04/17 00:45:49;;;;;;;11.20;8.30;;;;;;;10.33;100.00;101122.09;106867;1244;59007;-69
2023/04/17 00:48:22;;;;;;;11.60;8.00;;;;;;;10.31;100.00;101119.95;106754;1247;60443;-67
2023/04/17 00:50:52;;;;;;;12.10;8.70;;;;;;;10.29;100.00;101124.92;106736;1244;63425;-67
2023/04/17 00:53:21;;;;;;;13.70;8.50;;;;;;;10.27;100.00;101125.95;106923;1247;60953;-68
2023/04/17 00:55:51;;;;;;;12.00;8.60;;;;;;;10.24;100.00;101127.86;106915;1247;71491;-69
2023/04/17 00:58:21;;;;;;;11.60;8.20;;;;;;;10.22;100.00;101125.52;106795;1250;63752;-70
2023/04/17 01:00:50;;;;;;;12.70;8.60;;;;;;;10.22;100.00;101126.27;106854;1248;63248;-70
2023/04/17 01:03:20;;;;;;;15.80;7.90;;;;;;;10.24;100.00;101126.96;106983;1248;61134;-69
2023/04/17 01:05:51;;;;;;;16.10;8.70;;;;;;;10.24;100.00;101126.86;107019;1254;75348;-68
2023/04/17 01:08:21;;;;;;;9.80;7.70;;;;;;;10.26;100.00;101126.50;106975;1248;71818;-68
2023/04/17 01:10:50;;;;;;;11.30;8.00;;;;;;;10.28;100.00;101130.90;106943;1248;59692;-68
2023/04/17 01:13:19;;;;;;;12.50;7.90;;;;;;;10.32;100.00;101130.17;106992;1248;62824;-68
2023/04/17 01:15:49;;;;;;;15.50;8.50;;;;;;;10.31;100.00;101130.17;106959;1248;59088;-68
2023/04/17 01:18:18;;;;;;;12.30;8.50;;;;;;;10.35;100.00;101129.06;106953;1250;62037;-69
2023/04/17 01:20:47;;;;;;;13.60;8.00;;;;;;;10.37;100.00;101131.04;106706;1257;63708;-68
2023/04/17 01:23:16;;;;;;;12.20;8.50;;;;;;;10.38;100.00;101133.77;106967;1248;62180;-69
2023/04/17 01:25:46;;;;;;;13.10;8.60;;;;;;;10.41;100.00;101138.98;106983;1248;70772;-68
2023/04/17 01:28:15;;;;;;;11.50;8.40;;;;;;;10.41;100.00;101140.52;106901;1245;64487;-68
2023/04/17 01:30:45;;;;;;;13.30;9.10;;;;;;;10.42;100.00;101137.83;106997;1244;62856;-68
2023/04/17 01:33:14;;;;;;;11.50;8.40;;;;;;;10.42;100.00;101139.06;107025;1244;58971;-68
2023/04/17 01:35:43;;;;;;;10.20;7.60;;;;;;;10.44;100.00;101142.80;106832;1257;62351;-67
2023/04/17 01:38:12;;;;;;;10.80;7.40;;;;;;;10.41;100.00;101142.48;106985;1244;62264;-67
2023/04/17 01:40:42;;;;;;;10.20;7.20;;;;;;;10.40;100.00;101140.98;106797;1251;59518;-67
2023/04/17 01:43:11;;;;;;;11.70;7.10;;;;;;;10.36;100.00;101143.27;106933;1248;62708;-68
2023/04/17 01:45:41;;;;;;;11.40;7.20;;;;;;;10.31;100.00;101145.53;106923;1257;62723;-68
2023/04/17 01:48:10;;;;;;;13.90;7.80;;;;;;;10.27;100.00;101144.25;106912;1252;61339;-68
2023/04/17 01:50:39;;;;;;;10.10;6.80;;;;;;;10.22;100.00;101148.55;106936;1248;73639;-69
2023/04/17 01:53:08;;;;;;;12.20;7.40;;;;;;;10.21;100.00;101148.59;106926;1244;72352;-67
2023/04/17 01:55:36;;;;;;;9.90;7.50;;;;;;;10.16;100.00;101153.27;106890;1244;71769;-69
2023/04/17 01:58:06;;;;;;;12.60;7.00;;;;;;;10.18;100.00;101152.09;106834;1249;73668;-67
2023/04/17 02:00:35;;;;;;;11.30;7.20;;;;;;;10.17;100.00;101154.42;107020;1247;59029;-68
2023/04/17 02:03:04;;;;;;;11.10;6.50;;;;;;;10.18;100.00;101156.60;107000;1248;59160;-68
2023/04/17 02:05:34;;;;;;;9.50;7.30;;;;;;;10.16;100.00;101157.06;107065;1247;72684;-68
2023/04/17 02:08:03;;;;;;;11.00;7.10;;;;;;;10.16;100.00;101153.92;106992;1244;70639;-69
2023/04/17 02:10:33;;;;;;;10.00;7.20;;;;;;;10.16;100.00;101156.02;107034;1250;70540;-68
2023/04/17 02:13:02;;;;;;;9.30;6.70;;;;;;;10.14;100.00;101159.85;106988;1244;74195;-67
2023/04/17 02:15:31;;;;;;;10.70;7.80;;;;;;;10.10;100.00;101157.63;107113;1245;59187;-68
2023/04/17 02:18:00;;;;;;;9.10;7.60;;;;;;;10.09;100.00;101158.08;106949;1244;59015;-69
2023/04/17 02:20:29;;;;;;;11.40;7.80;;;;;;;10.07;100.00;101154.30;107112;1248;62986;-69
2023/04/17 02:23:00;;;;;;;10.10;6.50;;;;;;;10.06;100.00;101155.83;107036;1247;62095;-69
2023/04/17 02:25:31;;;;;;;8.90;6.20;;;;;;;9.96;100.00;101163.20;107028;1257;69718;-67
2023/04/17 02:28:00;;;;;;;9.60;6.10;;;;;;;9.92;100.00;101160.87;106999;1245;73560;-68
2023/04/17 02:30:29;;;;;;;8.80;5.30;;;;;;;9.88;100.00;101158.02;107058;1244;59083;-67
2023/04/17 02:32:58;;;;;;;10.40;6.00;;;;;;;9.79;100.00;101153.84;107078;1248;60516;-68
2023/04/17 02:35:31;;;;;;;10.20;5.20;;;;;;;9.76;100.00;101153.83;107142;1248;74375;-67
2023/04/17 02:38:00;;;;;;;6.90;4.60;;;;;;;9.72;100.00;101154.26;107021;1248;61238;-68
2023/04/17 02:40:29;;;;;;;8.50;4.80;;;;;;;9.66;100.00;101156.22;106959;1250;59441;-69
2023/04/17 02:43:01;;;;;;;8.50;4.60;;;;;;;9.61;100.00;101161.39;106917;1244;74730;-69
2023/04/17 02:45:31;;;;;;;8.40;5.10;;;;;;;9.56;100.00;101162.02;106972;1248;62849;-68
2023/04/17 02:48:02;;;;;;;9.70;4.80;;;;;;;9.56;100.00;101162.73;107085;1247;59190;-69
2023/04/17 02:50:31;;;;;;;8.30;4.40;;;;;;;9.56;100.00;101162.70;107042;1248;63339;-69
2023/04/17 02:53:10;;;;;;;7.80;4.40;;;;;;;9.54;100.00;101164.05;107037;1248;61488;-68
2023/04/17 02:55:39;;;;;;;9.20;4.40;;;;;;;9.46;100.00;101167.48;107127;1248;59885;-68
2023/04/17 02:58:08;;;;;;;7.40;4.70;;;;;;;9.45;100.00;101168.79;107097;1248;62755;-68
2023/04/17 03:00:38;;;;;;;11.30;4.30;;;;;;;9.40;100.00;101169.81;107074;1247;58754;-68
2023/04/17 03:03:08;;;;;;;9.70;4.60;;;;;;;9.33;100.00;101169.34;106958;1246;60599;-68
2023/04/17 03:05:38;;;;;;;9.80;5.30;;;;;;;9.29;100.00;101169.56;107066;1244;62760;-68
2023/04/17 03:08:07;;;;;;;7.40;4.30;;;;;;;9.27;100.00;101174.55;107106;1244;72042;-69
2023/04/17 03:10:44;;;;;;;13.10;5.00;;;;;;;9.24;100.00;101179.41;107075;1245;71453;-69
2023/04/17 03:13:14;;;;;;;11.50;5.30;;;;;;;9.24;100.00;101187.08;107025;1244;74234;-69
2023/04/17 03:15:43;;;;;;;10.00;5.10;;;;;;;9.21;100.00;101187.46;107161;1245;58571;-69
2023/04/17 03:18:12;;;;;;;10.10;5.10;;;;;;;9.20;100.00;101190.29;107111;1248;60399;-69
2023/04/17 03:20:41;;;;;;;7.80;5.20;;;;;;;9.15;100.00;101191.60;107052;1253;73746;-68
2023/04/17 03:23:10;;;;;;;10.80;5.40;;;;;;;9.15;100.00;101194.59;107044;1248;72526;-69
2023/04/17 03:25:39;;;;;;;8.60;5.00;;;;;;;9.14;100.00;101199.66;107041;1247;70134;-68
2023/04/17 03:28:08;;;;;;;7.60;5.00;;;;;;;9.10;100.00;101199.72;107051;1247;64296;-68
2023/04/17 03:30:37;;;;;;;9.70;5.50;;;;;;;9.00;100.00;101199.97;107037;1248;59214;-67
2023/04/17 03:33:07;;;;;;;10.90;5.40;;;;;;;8.90;100.00;101197.24;107053;1247;58970;-69
2023/04/17 03:35:36;;;;;;;8.90;5.60;;;;;;;8.86;100.00;101200.93;107021;1245;62507;-69
2023/04/17 03:38:07;;;;;;;10.70;5.40;;;;;;;8.83;100.00;101203.91;106997;1248;60951;-68
2023/04/17 03:40:36;;;;;;;9.30;4.70;;;;;;;8.80;100.00;101203.20;106991;1255;60011;-68
2023/04/17 03:43:06;;;;;;;11.10;5.40;;;;;;;8.74;100.00;101204.93;106934;1254;73804;-67
2023/04/17 03:45:34;;;;;;;10.50;5.60;;;;;;;8.75;100.00;101211.13;107007;1247;61718;-67
2023/04/17 03:48:06;;;;;;;11.30;5.60;;;;;;;8.73;100.00;101209.32;107107;1251;59063;-68
2023/04/17 03:50:35;;;;;;;11.60;6.40;;;;;;;8.71;100.00;101210.96;106956;1257;62257;-67
2023/04/17 03:53:04;;;;;;;10.80;6.60;;;;;;;8.69;100.00;101215.77;107099;1248;71769;-68
2023/04/17 03:55:33;;;;;;;13.10;6.40;;;;;;;8.67;100.00;101216.56;107012;1247;60534;-69
2023/04/17 03:58:03;;;;;;;9.40;5.30;;;;;;;8.65;100.00;101218.48;107029;1244;62595;-68
2023/04/17 04:00:32;;;;;;;8.80;5.30;;;;;;;8.61;100.00;101215.38;107103;1247;58971;-69
2023/04/17 04:03:03;;;;;;;8.40;5.70;;;;;;;8.60;100.00;101216.33;107104;1250;58528;-69
2023/04/17 04:05:38;;;;;;;10.20;6.20;;;;;;;8.60;100.00;101213.15;107032;1244;62452;-67
2023/04/17 04:08:08;;;;;;;12.70;6.00;;;;;;;8.58;100.00;101212.80;107046;1257;61649;-68
2023/04/17 04:10:45;;;;;;;9.70;5.90;;;;;;;8.58;100.00;101216.75;107103;1244;70047;-67
2023/04/17 04:13:19;;;;;;;8.10;5.00;;;;;;;8.60;100.00;101213.71;107088;1244;73833;-68
2023/04/17 04:15:52;;;;;;;9.60;5.90;;;;;;;8.60;100.00;101215.27;107104;1247;59040;-69
2023/04/17 04:18:22;;;;;;;11.20;6.20;;;;;;;8.58;100.00;101210.68;107166;1245;59022;-70
2023/04/17 04:20:51;;;;;;;8.10;5.40;;;;;;;8.58;100.00;101211.88;107110;1257;62952;-69
2023/04/17 04:23:26;;;;;;;11.80;6.20;;;;;;;8.57;100.00;101218.02;106908;1244;72524;-69
2023/04/17 04:25:56;;;;;;;11.10;6.40;;;;;;;8.58;100.00;101216.77;106872;1244;70842;-68
2023/04/17 04:28:33;;;;;;;8.80;6.00;;;;;;;8.56;100.00;101215.84;107087;1245;74229;-68
2023/04/17 04:31:02;;;;;;;10.10;5.70;;;;;;;8.53;100.00;101216.54;106887;1249;62570;-69
2023/04/17 04:33:36;;;;;;;13.80;6.10;;;;;;;8.55;100.00;101219.02;107017;1249;60775;-68
2023/04/17 04:36:06;;;;;;;9.70;5.90;;;;;;;8.54;100.00;101218.89;106966;1255;63756;-69
2023/04/17 04:38:35;;;;;;;7.90;5.70;;;;;;;8.55;100.00;101219.52;107018;1247;61140;-68
2023/04/17 04:41:10;;;;;;;9.40;5.80;;;;;;;8.56;100.00;101212.74;106896;1248;69905;-67
2023/04/17 04:43:39;;;;;;;10.20;5.70;;;;;;;8.57;100.00;101216.81;106851;1251;73924;-67
2023/04/17 04:46:10;;;;;;;12.30;6.10;;;;;;;8.54;100.00;101213.86;106870;1248;59386;-69
2023/04/17 04:48:43;;;;;;;8.40;5.60;;;;;;;8.56;100.00;101214.25;106768;1250;60747;-68
2023/04/17 04:51:12;;;;;;;11.50;5.70;;;;;;;8.56;100.00;101210.81;106826;1244;74375;-68
2023/04/17 04:53:42;;;;;;;10.70;7.00;;;;;;;8.55;100.00;101209.66;107002;1248;62217;-68
2023/04/17 04:56:12;;;;;;;9.10;5.90;;;;;;;8.52;100.00;101217.44;107066;1254;69797;-69
2023/04/17 04:58:42;;;;;;;8.60;5.60;;;;;;;8.52;100.00;101223.89;107083;1257;63973;-69
2023/04/17 05:01:11;;;;;;;10.60;6.30;;;;;;;8.53;100.00;101219.98;107018;1247;59021;-71
2023/04/17 05:03:44;;;;;;;7.70;5.90;;;;;;;8.46;100.00;101221.42;107041;1254;59068;-70
2023/04/17 05:06:15;;;;;;;10.20;6.30;;;;;;;8.42;100.00;101221.30;107038;1247;62173;-68
2023/04/17 05:08:48;;;;;;;12.20;6.70;;;;;;;8.44;100.00;101217.15;107057;1255;71935;-69
2023/04/17 05:11:18;;;;;;;10.00;6.30;;;;;;;8.45;100.00;101213.83;107036;1244;71750;-69
2023/04/17 05:13:47;;;;;;;10.90;6.40;;;;;;;8.42;100.00;101215.38;106954;1244;73825;-68
2023/04/17 05:16:20;;;;;;;12.70;5.80;;;;;;;8.43;100.00;101219.50;107072;1248;62952;-68
2023/04/17 05:18:49;;;;;;;8.70;5.70;;;;;;;8.42;100.00;101219.39;107087;1247;59065;-68
2023/04/17 05:21:24;;;;;;;10.30;6.20;;;;;;;8.40;100.00;101217.94;106940;1257;62450;-68
2023/04/17 05:23:54;;;;;;;14.70;6.10;;;;;;;8.40;100.00;101216.75;107030;1254;62028;-68
2023/04/17 05:26:23;;;;;;;10.00;5.70;;;;;;;8.35;100.00;101212.45;106980;1248;71048;-71
2023/04/17 05:28:52;;;;;;;11.20;5.70;;;;;;;8.31;100.00;101213.36;107112;1247;73529;-68
2023/04/17 05:31:25;;;;;;;11.30;6.00;;;;;;;8.34;100.00;101217.71;107121;1247;58863;-68
2023/04/17 05:33:54;;;;;;;12.10;6.70;;;;;;;8.34;100.00;101221.17;107148;1245;58967;-71
2023/04/17 05:36:23;;;;;;;11.20;6.50;;;;;;;8.40;100.00;101221.23;106809;1257;62225;-71
2023/04/17 05:38:53;;;;;;;10.10;6.60;;;;;;;8.47;100.00;101217.90;106901;1248;62144;-69
2023/04/17 05:41:22;;;;;;;10.90;7.10;;;;;;;8.56;100.00;101221.77;106990;1244;62669;-69
2023/04/17 05:43:51;;;;;;;12.30;7.80;;;;;;;8.59;100.00;101216.34;107026;1248;74561;-72
2023/04/17 05:46:20;;;;;;;13.10;8.40;;;;;;;8.59;100.00;101218.44;107013;1247;62460;-70
2023/04/17 05:48:49;;;;;;;13.00;8.20;;;;;;;8.51;100.00;101215.42;106968;1247;60525;-68
2023/04/17 05:51:18;;;;;;;13.50;8.50;;;;;;;8.55;100.00;101212.44;107072;1245;64420;-68
2023/04/17 05:53:48;;;;;;;14.90;8.20;;;;;;;8.58;100.00;101210.72;107102;1248;61790;-69
2023/04/17 05:56:17;;;;;;;14.90;8.40;;;;;;;8.56;100.00;101215.13;107073;1244;59276;-68
2023/04/17 05:58:46;;;;;;;10.50;7.00;;;;;;;8.57;100.00;101213.67;107035;1248;63543;-69
2023/04/17 06:01:17;;;;;;;11.00;6.90;;;;;;;8.63;100.00;101216.86;107044;1248;60438;-69
2023/04/17 06:03:45;;;;;;;12.20;6.90;;;;;;;8.65;100.00;101217.73;107043;1247;61192;-69
2023/04/17 06:06:18;;;;;;;;;;;;;;;8.62;100.00;101220.17;106976;1244;72149;-69
2023/04/17 06:08:48;;;;;;;11.20;6.70;;;;;;;8.67;100.00;101223.02;106924;1248;72123;-69
2023/04/17 06:11:17;;;;;;;8.30;6.20;;;;;;;8.69;100.00;101223.95;106864;1254;70498;-68
2023/04/17 06:13:46;;;;;;;10.70;5.90;;;;;;;8.69;100.00;101226.02;106941;1247;74559;-70
2023/04/17 06:16:16;;;;;;;13.70;8.10;;;;;;;8.69;100.00;101224.66;106860;1249;62738;-69
2023/04/17 06:18:46;;;;;;;12.90;6.70;;;;;;;8.74;100.00;101222.25;106948;1248;59088;-67
2023/04/17 06:21:15;;;;;;;13.00;6.50;;;;;;;8.75;100.00;101224.48;106926;1257;62906;-69
2023/04/17 06:23:44;;;;;;;12.70;7.00;;;;;;;8.80;100.00;101223.71;107072;1257;61640;-74
2023/04/17 06:26:16;;;;;;;11.10;7.10;;;;;;;8.90;100.00;101226.27;106756;1257;355226;-71
2023/04/17 06:28:46;;;;;;;11.40;6.80;;;;;;;9.00;100.00;101224.42;106822;1251;62485;-78
2023/04/17 06:31:15;;;;;;;10.50;6.60;;;;;;;9.03;100.00;101228.45;106828;1251;62086;-71
2023/04/17 06:33:46;;;;;;;11.30;6.30;;;;;;;9.14;100.00;101227.65;106866;1248;61941;-72
2023/04/17 06:36:15;;;;;;;10.60;7.40;;;;;;;9.11;100.00;101230.78;106855;1244;62638;-72
2023/04/17 06:38:48;;;;;;;14.90;7.70;;;;;;;9.17;100.00;101231.12;106954;1251;62546;-72
2023/04/17 06:41:18;;;;;;;11.70;7.40;;;;;;;9.12;100.00;101231.95;107017;1255;59246;-73
2023/04/17 06:43:47;;;;;;;11.20;7.50;;;;;;;9.11;100.00;101232.87;107067;1255;63906;-70
2023/04/17 06:46:16;;;;;;;8.20;6.30;;;;;;;9.14;100.00;101233.36;107062;1248;59133;-71
2023/04/17 06:48:45;;;;;;;9.60;6.40;;;;;;;9.22;100.00;101231.32;107124;1248;59003;-72
2023/04/17 06:51:16;;;;;;;8.80;5.50;;;;;;;9.25;100.00;101231.01;107129;1244;72803;-75
2023/04/17 06:53:47;;;;;;;11.30;6.00;;;;;;;9.32;100.00;101230.05;107162;1251;61946;-71
2023/04/17 06:56:16;;;;;;;10.40;7.10;;;;;;;9.28;100.00;101229.73;107161;1245;69892;-71
2023/04/17 06:58:45;;;;;;;8.80;5.70;;;;;;;9.32;100.00;101230.54;107144;1254;73734;-72
2023/04/17 07:01:14;;;;;;;8.00;5.40;;;;;;;9.38;100.00;101236.17;107173;1248;62630;-76
2023/04/17 07:03:43;;;;;;;9.20;5.40;;;;;;;9.30;100.00;101235.02;107487;1244;61256;-71
2023/04/17 07:06:12;;;;;;;9.00;5.90;;;;;;;9.28;100.00;101231.70;107201;1256;63199;-72
2023/04/17 07:08:41;;;;;;;8.80;5.70;;;;;;;9.28;100.00;101229.96;107297;1252;61085;-75
2023/04/17 07:11:10;;;;;;;9.50;5.30;;;;;;;9.32;100.00;101233.21;107313;1256;69690;-72
2023/04/17 07:13:39;;;;;;;11.10;5.70;;;;;;;9.29;100.00;101229.52;107393;1248;63037;-83
2023/04/17 07:16:08;;;;;;;10.90;5.80;;;;;;;9.33;100.00;101232.44;107438;1256;58621;-78
2023/04/17 07:18:37;;;;;;;9.40;7.00;;;;;;;9.40;100.00;101238.96;107234;1247;59045;-76
2023/04/17 07:21:06;;;;;;;9.00;6.10;;;;;;;9.43;100.00;101241.73;107244;1247;63925;-76
2023/04/17 07:23:35;;;;;;;9.80;6.10;;;;;;;9.36;100.00;101243.02;107177;1245;61995;-79
2023/04/17 07:26:04;;;;;;;10.10;6.00;;;;;;;9.43;100.00;101247.32;107275;1256;59220;-77
2023/04/17 07:28:33;;;;;;;10.90;6.10;;;;;;;9.39;100.00;101250.68;107299;1247;72452;-75
2023/04/17 07:31:03;;;;;;;8.80;6.30;;;;;;;9.31;100.00;101250.30;107267;1248;63282;-74
2023/04/17 07:33:32;;;;;;;9.00;5.80;;;;;;;9.41;100.00;101255.44;107285;1248;58889;-77
2023/04/17 07:36:03;;;;;;;8.40;5.30;;;;;;;9.50;100.00;101259.21;107464;1249;63983;-73
2023/04/17 07:38:32;;;;;;;9.40;5.10;;;;;;;9.49;100.00;101258.94;107083;1248;62672;-73
2023/04/17 07:41:01;;;;;;;11.90;5.60;;;;;;;9.55;100.00;101263.50;107208;1248;60953;-74
2023/04/17 07:43:30;;;;;;;10.80;5.40;;;;;;;9.65;100.00;101263.23;107052;1257;62779;-74
2023/04/17 07:45:59;;;;;;;12.20;6.20;;;;;;;9.68;100.00;101266.31;107053;1248;59051;-73
2023/04/17 07:48:28;;;;;;;9.80;5.60;;;;;;;9.80;100.00;101269.95;107028;1245;57469;-74
2023/04/17 07:51:00;;;;;;;13.80;5.40;;;;;;;9.99;100.00;101266.02;107008;1248;62331;-74
2023/04/17 07:53:29;;;;;;;8.80;4.70;;;;;;;10.05;100.00;101262.16;107050;1257;62312;-74
2023/04/17 07:55:58;;;;;;;7.50;4.90;;;;;;;10.08;100.00;101263.38;107032;1248;59990;-73
2023/04/17 07:58:28;;;;;;;8.80;4.40;;;;;;;10.13;100.00;101263.95;107056;1248;62596;-88
2023/04/17 08:00:57;;;;;;;8.60;5.40;;;;;;;10.21;100.00;101264.86;107283;1247;62973;-74
2023/04/17 08:03:25;;;;;;;6.10;4.70;;;;;;;10.24;100.00;101263.29;107069;1255;59121;-73
2023/04/17 08:05:55;;;;;;;8.90;5.90;;;;;;;10.30;100.00;101264.33;107285;1248;62448;-73
2023/04/17 08:08:24;;;;;;;10.30;5.40;;;;;;;10.18;100.00;101264.89;107162;1244;71382;-74
2023/04/17 08:10:54;;;;;;;9.50;6.10;;;;;;;10.06;100.00;101264.02;106995;1244;70837;-74
2023/04/17 08:13:23;;;;;;;10.00;5.50;;;;;;;10.06;100.00;101264.59;107185;1245;74508;-73
2023/04/17 08:15:53;;;;;;;10.40;5.50;;;;;;;10.03;100.00;101265.79;107127;1246;62705;-75
2023/04/17 08:18:22;;;;;;;11.70;5.00;;;;;;;9.97;100.00;101273.82;107890;1244;59002;-75
2023/04/17 08:20:51;;;;;;;6.80;4.80;;;;;;;9.97;100.00;101277.12;107022;1248;62444;-74
2023/04/17 08:23:20;;;;;;;9.90;4.80;;;;;;;9.98;100.00;101281.05;107096;1248;69818;-75
2023/04/17 08:25:49;;;;;;;6.50;4.50;;;;;;;9.91;100.00;101284.11;108274;1245;59471;-75
2023/04/17 08:28:18;;;;;;;10.70;5.00;;;;;;;9.95;100.00;101281.95;107087;1254;63554;-75
2023/04/17 08:30:47;;;;;;;6.80;4.90;;;;;;;9.84;100.00;101279.33;109377;1245;57770;-74
2023/04/17 08:33:17;;;;;;;11.20;5.60;;;;;;;9.84;100.00;101285.92;109443;1244;60696;-75
2023/04/17 08:35:46;;;;;;;7.80;5.30;;;;;;;9.92;100.00;101287.20;107597;1248;73583;-75
2023/04/17 08:38:15;;;;;;;10.80;5.50;;;;;;;9.97;100.00;101283.38;109483;1244;70497;-74
2023/04/17 08:40:50;;;;;;;9.90;5.70;;;;;;;10.01;100.00;101286.95;108618;1245;61484;-74
2023/04/17 08:43:21;;;;;;;8.50;6.00;;;;;;;10.02;100.00;101286.20;109362;1244;73825;-74
2023/04/17 08:45:54;;;;;;;9.20;5.40;;;;;;;10.23;100.00;101284.95;108818;1245;58083;-74
2023/04/17 08:48:23;;;;;;;;;;;;;;;10.29;100.00;101286.15;108059;1248;58326;-72
2023/04/17 08:50:52;;;;;;;10.50;6.30;;;;;;;10.21;100.00;101285.91;106892;1248;63249;-74
2023/04/17 08:53:21;;;;;;;8.10;5.60;;;;;;;10.09;100.00;101286.68;107660;1244;71423;-73
2023/04/17 08:55:50;;;;;;;9.70;5.80;;;;;;;10.14;100.00;101284.25;109347;1244;70215;-74
2023/04/17 08:58:24;;;;;;;10.00;6.40;;;;;;;10.13;100.00;101286.80;109350;1245;74584;-81
2023/04/17 09:01:08;;;;;;;12.00;5.90;;;;;;;10.18;100.00;101279.98;108776;1244;63673;-76
2023/04/17 09:03:47;;;;;;;9.20;7.30;;;;;;;10.31;100.00;101277.64;109266;1244;57111;-76
2023/04/17 09:06:17;;;;;;;8.80;5.30;;;;;;;10.15;100.00;101272.58;107919;1248;72774;-75
2023/04/17 09:09:03;;;;;;;7.60;5.20;;;;;;;10.23;100.00;101276.79;107023;1244;72422;-73
2023/04/17 09:11:32;;;;;;;8.00;5.50;;;;;;;10.21;100.00;101278.25;107865;1248;59550;-74
2023/04/17 09:14:01;;;;;;;9.50;5.40;;;;;;;10.16;100.00;101281.20;107543;1245;63310;-75
2023/04/17 09:16:30;;;;;;;8.50;6.00;;;;;;;10.23;100.00;101283.03;107488;1248;63384;-74
2023/04/17 09:19:08;;;;;;;7.50;5.30;;;;;;;10.24;100.00;101280.52;109153;1248;57159;-75
2023/04/17 09:21:37;;;;;;;10.30;5.70;;;;;;;10.28;100.00;101282.02;107419;1245;62903;-72
2023/04/17 09:24:08;;;;;;;10.70;5.30;;;;;;;10.19;100.00;101285.52;109240;1244;60731;-74
2023/04/17 09:26:38;;;;;;;9.90;5.80;;;;;;;10.21;100.00;101286.45;109129;1244;60021;-78
2023/04/17 09:29:10;;;;;;;10.70;5.90;;;;;;;10.14;100.00;101286.51;107334;1246;72994;-78
2023/04/17 09:31:41;;;;;;;;;;;;;;;10.02;100.00;101283.77;107393;1256;62746;-86
2023/04/17 09:34:12;;;;;;;10.50;5.50;;;;;;;10.03;100.00;101282.67;107188;1248;59124;-76
2023/04/17 09:36:42;;;;;;;9.90;6.30;;;;;;;9.97;100.00;101283.39;109178;1244;73875;-72
2023/04/17 09:39:22;;;;;;;8.00;5.90;;;;;;;9.99;100.00;101285.17;107625;1248;62090;-80
2023/04/17 09:42:02;;;;;;;8.10;5.80;;;;;;;10.06;100.00;101281.99;106970;1254;59263;-77
2023/04/17 09:44:35;;;;;;;11.10;5.90;;;;;;;10.12;100.00;101278.26;106939;1248;73599;-75
2023/04/17 09:47:06;;;;;;;7.70;5.30;;;;;;;10.16;100.00;101269.37;108283;1245;57816;-76
2023/04/17 09:49:51;;;;;;;10.50;5.30;;;;;;;10.18;100.00;101266.59;106770;1248;59010;-75
2023/04/17 09:52:22;;;;;;;8.10;5.60;;;;;;;10.19;100.00;101272.09;107053;1244;73531;-81
2023/04/17 09:54:52;;;;;;;7.90;5.10;;;;;;;10.21;100.00;101268.00;107142;1248;61539;-76
2023/04/17 09:57:21;;;;;;;7.40;5.40;;;;;;;10.22;100.00;101265.01;107123;1248;60483;-76
2023/04/17 09:59:51;;;;;;;9.30;5.90;;;;;;;10.20;100.00;101267.88;107144;1245;62505;-74
2023/04/17 10:02:21;;;;;;;9.60;5.60;;;;;;;10.23;100.00;101269.10;106842;1248;62348;-74
2023/04/17 10:04:51;;;;;;;10.80;5.10;;;;;;;10.31;100.00;101268.79;107131;1248;59146;-76
2023/04/17 10:07:20;;;;;;;9.10;5.20;;;;;;;10.22;100.00;101267.24;106876;1246;71779;-77
2023/04/17 10:09:49;;;;;;;7.80;5.30;;;;;;;10.08;100.00;101270.71;107183;1257;72162;-76
2023/04/17 10:12:20;;;;;;;8.60;5.00;;;;;;;9.98;100.00;101267.85;107173;1248;70036;-76
2023/04/17 10:14:51;;;;;;;8.30;5.10;;;;;;;9.91;100.00;101271.41;107295;1248;63025;-77
2023/04/17 10:17:35;;;;;;;10.50;6.00;;;;;;;9.87;100.00;101273.41;107005;1247;62962;-77
2023/04/17 10:20:17;;;;;;;9.30;5.00;;;;;;;9.88;100.00;101269.85;107340;1253;61525;-80
2023/04/17 10:22:53;;;;;;;7.40;5.00;;;;;;;9.87;100.00;101270.25;106972;1255;74684;-75
2023/04/17 10:25:28;;;;;;;8.40;5.30;;;;;;;9.86;100.00;101267.17;107972;1244;71704;-74
2023/04/17 10:28:00;;;;;;;6.50;4.70;;;;;;;9.85;100.00;101264.11;108248;1247;59702;-75
2023/04/17 10:30:53;;;;;;;8.10;5.20;;;;;;;9.71;100.00;101265.82;107346;1247;64273;-76
2023/04/17 10:33:25;;;;;;;9.20;5.90;;;;;;;9.77;100.00;101263.54;107197;1246;63426;-75
2023/04/17 10:35:54;;;;;;;8.90;5.30;;;;;;;9.81;100.00;101263.67;107191;1246;60797;-74
2023/04/17 10:38:34;;;;;;;8.80;5.50;;;;;;;9.73;100.00;101259.42;106940;1245;73119;-80
2023/04/17 10:41:08;;;;;;;9.70;5.80;;;;;;;9.73;100.00;101259.96;107078;1244;71652;-80
2023/04/17 10:43:43;;;;;;;9.90;5.50;;;;;;;9.71;100.00;101257.33;107085;1246;68879;-76
2023/04/17 10:46:13;;;;;;;9.10;5.40;;;;;;;9.62;100.00;101255.60;107324;1246;73532;-78
2023/04/17 10:48:55;;;;;;;7.40;5.30;;;;;;;9.54;100.00;101253.41;107216;1248;59405;-77
2023/04/17 10:51:27;;;;;;;6.60;4.60;;;;;;;9.62;100.00;101254.54;107199;1247;60985;-76
2023/04/17 10:54:01;;;;;;;6.80;5.10;;;;;;;9.66;100.00;101254.64;107005;1247;73663;-76
2023/04/17 10:56:47;;;;;;;8.60;5.30;;;;;;;9.61;100.00;101257.40;107247;1248;63382;-77
2023/04/17 10:59:18;;;;;;;8.20;4.90;;;;;;;9.75;100.00;101255.70;107019;1247;70539;-80
2023/04/17 11:01:47;;;;;;;7.60;4.60;;;;;;;9.96;100.00;101248.82;107289;1248;74749;-79
2023/04/17 11:04:30;;;;;;;7.10;4.80;;;;;;;9.91;100.00;101250.52;107035;1248;60162;-79
2023/04/17 11:06:59;;;;;;;10.00;4.70;;;;;;;9.98;100.00;101257.08;107019;1248;59750;-78
2023/04/17 11:09:28;;;;;;;8.80;4.60;;;;;;;10.02;100.00;101245.64;107139;1246;64915;-81
2023/04/17 11:12:02;;;;;;;7.80;4.90;;;;;;;9.95;100.00;101254.05;107348;1245;71161;-81
2023/04/17 11:14:31;;;;;;;8.00;4.60;;;;;;;9.87;100.00;101255.66;107084;1256;60819;-82
2023/04/17 11:17:00;;;;;;;11.00;4.70;;;;;;;9.78;100.00;101257.89;107359;1245;63220;-82
2023/04/17 11:19:32;;;;;;;11.70;4.90;;;;;;;9.67;100.00;101253.90;107391;1246;61834;-80
2023/04/17 11:22:01;;;;;;;7.80;5.60;;;;;;;9.70;100.00;101248.64;107425;1244;61071;-79
2023/04/17 11:24:31;;;;;;;6.90;5.00;;;;;;;9.77;100.00;101246.67;107218;1257;62456;-77